Time;durP1;ratioP1;P1;durP2;ratioP2;P2;SDS_P1;SDS_P2;PMS_P1;PMS_P2;Temp;Humidity;BMP_temperature;BMP_pressure;BME280_temperature;BME280_humidity;BME280_pressure;Samples;Min_cycle;Max_cycle;Signal;HPM_P1;HPM_P2
2022/04/23 02:43:30;;;;;;;38.28;21.40;;;;;;;4.86;76.23;98456.27;1855687;77;22437;-37
2022/04/23 02:45:56;;;;;;;35.73;20.70;;;;;;;4.89;75.24;98462.62;1827954;78;21054;-36
2022/04/23 02:48:21;;;;;;;33.55;19.48;;;;;;;4.79;75.92;98454.39;1829407;78;20975;-39
2022/04/23 02:50:47;;;;;;;34.53;19.50;;;;;;;4.87;76.02;98461.01;1829419;78;20986;-38
2022/04/23 02:53:13;;;;;;;33.95;19.50;;;;;;;4.84;76.17;98464.61;1829411;78;21029;-41
2022/04/23 02:55:39;;;;;;;36.50;19.48;;;;;;;4.85;75.83;98461.08;1829440;78;21480;-41
2022/04/23 02:58:07;;;;;;;35.80;19.92;;;;;;;4.84;76.34;98462.44;1829440;78;21515;-39
2022/04/23 03:00:34;;;;;;;36.73;20.50;;;;;;;4.94;76.15;98448.93;1829451;78;20998;-40
2022/04/23 03:03:00;;;;;;;30.60;17.73;;;;;;;5.02;75.83;98441.22;1829512;78;20954;-37
2022/04/23 03:05:27;;;;;;;34.33;19.27;;;;;;;5.10;75.97;98443.03;1829359;78;20994;-40
2022/04/23 03:07:53;;;;;;;29.00;17.45;;;;;;;5.16;75.67;98435.75;1829394;78;21037;-40
2022/04/23 03:10:20;;;;;;;30.00;18.23;;;;;;;5.19;75.07;98442.12;1829472;78;21045;-42
2022/04/23 03:12:46;;;;;;;40.33;20.67;;;;;;;5.17;74.93;98437.91;1829659;78;21026;-41
2022/04/23 03:15:20;;;;;;;35.03;18.50;;;;;;;5.15;75.14;98439.75;1829459;78;21245;-41
2022/04/23 03:17:45;;;;;;;33.95;16.62;;;;;;;5.14;75.43;98440.66;1827920;78;21017;-42
2022/04/23 03:20:12;;;;;;;30.43;18.15;;;;;;;5.11;75.37;98440.36;1829585;78;20990;-38
2022/04/23 03:22:40;;;;;;;33.63;19.27;;;;;;;5.06;75.45;98444.93;1829477;78;20998;-39
2022/04/23 03:25:08;;;;;;;37.28;20.00;;;;;;;5.04;75.84;98438.95;1828310;78;20947;-37
2022/04/23 03:27:34;;;;;;;32.48;18.50;;;;;;;5.05;75.90;98437.18;1829320;78;20998;-39
2022/04/23 03:30:01;;;;;;;33.38;17.82;;;;;;;5.00;75.51;98436.94;1829365;78;20994;-36
2022/04/23 03:32:27;;;;;;;28.77;17.98;;;;;;;4.96;75.75;98434.06;1829633;78;21001;-40
2022/04/23 03:34:53;;;;;;;30.52;18.30;;;;;;;4.91;76.02;98438.67;1829439;78;21022;-42
2022/04/23 03:37:19;;;;;;;30.97;18.32;;;;;;;4.84;75.76;98445.08;1829508;78;21483;-40
2022/04/23 03:39:45;;;;;;;31.95;18.80;;;;;;;4.86;76.28;98440.64;1829376;78;21551;-37
2022/04/23 03:42:11;;;;;;;30.62;18.12;;;;;;;4.90;75.51;98440.04;1821333;78;21003;-40
2022/04/23 03:44:37;;;;;;;35.50;18.62;;;;;;;4.92;75.15;98442.95;1807889;78;20983;-40
2022/04/23 03:47:04;;;;;;;28.73;17.80;;;;;;;4.89;76.23;98440.94;1807975;79;21072;-37
2022/04/23 03:49:30;;;;;;;36.15;17.00;;;;;;;4.90;75.85;98443.48;1808012;79;20987;-40
2022/04/23 03:51:57;;;;;;;27.93;16.90;;;;;;;4.92;76.05;98446.86;1807878;79;21526;-40
2022/04/23 03:54:23;;;;;;;31.87;17.43;;;;;;;4.92;76.08;98441.64;1807641;79;21019;-37
2022/04/23 03:56:49;;;;;;;35.10;18.42;;;;;;;4.92;76.08;98441.64;1807230;78;21340;-39
2022/04/23 03:59:20;;;;;;;30.92;17.57;;;;;;;5.00;75.87;98444.76;1807260;79;20987;-40
2022/04/23 04:01:43;;;;;;;36.25;19.80;;;;;;;4.98;76.10;98443.12;1806645;79;21011;-40
2022/04/23 04:04:09;;;;;;;33.65;19.17;;;;;;;4.97;76.05;98439.67;1807268;79;20986;-39
2022/04/23 04:06:34;;;;;;;32.28;19.15;;;;;;;4.98;76.38;98438.78;1807388;79;20960;-38
2022/04/23 04:09:00;;;;;;;27.00;16.73;;;;;;;4.99;76.52;98441.75;1807289;78;20986;-42
2022/04/23 04:11:26;;;;;;;30.70;17.75;;;;;;;5.07;75.80;98440.09;1807319;78;21795;-40
2022/04/23 04:13:53;;;;;;;29.82;17.77;;;;;;;5.11;75.66;98442.09;1807287;79;21015;-39
2022/04/23 04:16:21;;;;;;;29.98;16.77;;;;;;;5.14;74.94;98440.66;1807395;79;21468;-39
2022/04/23 04:18:47;;;;;;;28.20;16.65;;;;;;;5.11;75.26;98440.79;1807319;79;20995;-41
2022/04/23 04:21:14;;;;;;;32.53;17.55;;;;;;;5.11;74.75;98444.27;1807213;79;20983;-38
2022/04/23 04:23:39;;;;;;;32.30;17.15;;;;;;;5.08;75.34;98439.19;1807376;79;20983;-38
2022/04/23 04:26:07;;;;;;;30.02;17.77;;;;;;;5.09;75.46;98438.72;1807214;78;21006;-38
2022/04/23 04:28:34;;;;;;;34.35;17.45;;;;;;;5.11;75.38;98436.45;1807415;79;20998;-39
2022/04/23 04:32:00;;;;;;;31.90;18.12;;;;;;;5.13;75.58;98433.73;1807456;79;20956;-39
2022/04/23 04:33:36;;;;;;;28.30;17.70;;;;;;;5.12;76.01;98432.91;1786935;79;20971;-38
2022/04/23 04:36:03;;;;;;;39.20;19.00;;;;;;;5.11;75.19;98428.63;1807298;79;20979;-40
2022/04/23 04:38:30;;;;;;;34.45;18.77;;;;;;;5.13;75.60;98433.73;1807523;78;21499;-37
2022/04/23 04:40:56;;;;;;;37.63;18.52;;;;;;;5.16;75.13;98428.39;1807370;79;20990;-37
2022/04/23 04:43:22;;;;;;;30.75;18.20;;;;;;;5.18;76.17;98431.33;1814633;79;20975;-39
2022/04/23 04:45:48;;;;;;;33.20;17.52;;;;;;;5.28;75.88;98428.29;1817532;79;20978;-43
2022/04/23 04:48:15;;;;;;;29.23;17.60;;;;;;;5.32;75.88;98429.36;1817456;79;20994;-38
2022/04/23 04:50:41;;;;;;;31.33;17.95;;;;;;;5.39;75.61;98432.06;1817620;79;21021;-43
2022/04/23 04:53:07;;;;;;;26.95;16.27;;;;;;;5.45;75.43;98435.30;1817520;79;21030;-41
2022/04/23 04:55:34;;;;;;;29.07;16.40;;;;;;;5.45;75.51;98444.42;1817526;79;21531;-36
2022/04/23 04:58:00;;;;;;;38.00;17.17;;;;;;;5.46;75.41;98444.82;1817814;79;21029;-38
2022/04/23 05:00:27;;;;;;;32.75;17.85;;;;;;;5.56;75.17;98439.52;1817485;79;21170;-39
2022/04/23 05:02:54;;;;;;;36.55;18.35;;;;;;;5.61;75.05;98438.84;1817537;79;20990;-40
2022/04/23 05:05:20;;;;;;;29.40;17.17;;;;;;;5.66;74.63;98442.08;1817655;79;21030;-38
2022/04/23 05:07:46;;;;;;;26.40;16.30;;;;;;;5.70;74.44;98441.00;1817568;79;22192;-38
2022/04/23 05:10:12;;;;;;;26.07;15.98;;;;;;;5.68;74.96;98433.72;1817468;79;20983;-36
2022/04/23 05:12:37;;;;;;;28.35;16.25;;;;;;;5.76;74.35;98434.64;1817483;79;20951;-43
2022/04/23 05:15:04;;;;;;;31.37;16.45;;;;;;;5.76;74.37;98431.56;1817497;79;21009;-40
2022/04/23 05:17:30;;;;;;;29.70;16.67;;;;;;;5.82;74.37;98431.74;1817739;79;20955;-38
2022/04/23 05:19:55;;;;;;;25.48;15.40;;;;;;;5.87;74.64;98431.50;1817540;79;22204;-38
2022/04/23 05:22:21;;;;;;;27.32;16.52;;;;;;;5.82;74.28;98430.87;1817430;79;21459;-39
2022/04/23 05:24:47;;;;;;;31.20;16.87;;;;;;;5.92;73.41;98436.03;1817542;79;20974;-39
2022/04/23 05:27:13;;;;;;;22.70;15.32;;;;;;;5.92;73.74;98430.34;1817510;79;20956;-40
2022/04/23 05:29:38;;;;;;;23.10;14.75;;;;;;;5.95;73.34;98431.97;1817444;79;20979;-38
2022/04/23 05:32:05;;;;;;;25.02;15.63;;;;;;;5.95;73.51;98430.23;1817464;79;20975;-37
2022/04/23 05:34:34;;;;;;;26.25;16.05;;;;;;;5.95;73.38;98441.98;1817415;79;21453;-41
2022/04/23 05:36:58;;;;;;;;;;;;;;;5.98;73.41;98431.00;1819741;79;20967;-43
2022/04/23 05:39:24;;;;;;;23.25;16.42;;;;;;;5.98;73.47;98442.73;1817503;79;20184;-38
2022/04/23 05:41:49;;;;;;;30.65;16.50;;;;;;;6.05;73.35;98444.13;1817523;79;20948;-36
2022/04/23 05:44:15;;;;;;;25.77;15.83;;;;;;;6.11;73.09;98442.05;1817371;79;21014;-38
2022/04/23 05:46:41;;;;;;;26.93;17.27;;;;;;;6.13;73.00;98436.73;1817487;79;20972;-38
2022/04/23 05:49:07;;;;;;;30.15;17.48;;;;;;;6.15;73.02;98432.30;1817390;79;21543;-37
2022/04/23 05:51:33;;;;;;;33.28;18.25;;;;;;;6.17;72.90;98436.11;1817441;79;21033;-39
2022/04/23 05:53:58;;;;;;;26.57;16.90;;;;;;;6.23;73.26;98438.44;1817390;79;20991;-36
2022/04/23 05:56:25;;;;;;;28.00;16.73;;;;;;;6.23;73.26;98438.44;1817446;79;20939;-39
2022/04/23 05:58:50;;;;;;;26.12;17.10;;;;;;;6.34;72.72;98440.86;1817492;79;20978;-41
2022/04/23 06:01:16;;;;;;;28.38;18.45;;;;;;;6.39;72.69;98438.02;1817416;79;20978;-42
2022/04/23 06:03:42;;;;;;;23.30;16.77;;;;;;;6.45;72.51;98435.08;1817518;79;21512;-39
2022/04/23 06:06:07;;;;;;;22.52;14.40;;;;;;;6.51;71.79;98435.22;1817509;79;21445;-41
2022/04/23 06:08:33;;;;;;;23.35;14.50;;;;;;;6.58;71.85;98444.89;1817536;79;20991;-41
2022/04/23 06:10:59;;;;;;;26.25;15.15;;;;;;;6.63;71.57;98444.20;1817422;79;20982;-38
2022/04/23 06:13:25;;;;;;;21.75;14.70;;;;;;;6.69;71.44;98442.55;1817424;79;21074;-41
2022/04/23 06:15:51;;;;;;;22.30;13.85;;;;;;;6.78;71.55;98438.14;1817401;79;21496;-40
2022/04/23 06:18:17;;;;;;;24.35;14.73;;;;;;;6.89;71.17;98434.95;1817414;79;20963;-40
2022/04/23 06:20:43;;;;;;;23.60;14.73;;;;;;;6.92;70.67;98438.25;1817374;79;20971;-41
2022/04/23 06:23:08;;;;;;;25.05;14.65;;;;;;;7.05;70.56;98433.20;1817394;79;20970;-41
2022/04/23 06:25:34;;;;;;;21.37;14.90;;;;;;;7.08;70.20;98434.81;1817447;79;21332;-42
2022/04/23 06:28:00;;;;;;;20.68;14.65;;;;;;;7.14;69.84;98433.16;1817433;79;20991;-39
2022/04/23 06:30:26;;;;;;;22.37;15.03;;;;;;;7.17;69.77;98436.06;1817441;79;20986;-40
2022/04/23 06:32:51;;;;;;;23.42;15.00;;;;;;;7.22;69.35;98432.29;1817374;79;21034;-41
2022/04/23 06:35:17;;;;;;;25.85;18.17;;;;;;;7.22;69.15;98433.59;1817396;79;21053;-40
2022/04/23 06:37:44;;;;;;;31.05;16.60;;;;;;;7.26;69.15;98431.19;1817374;79;20952;-40
2022/04/23 06:40:11;;;;;;;20.70;14.83;;;;;;;7.25;68.91;98429.48;1817451;79;20999;-42
2022/04/23 06:42:38;;;;;;;;;;;;;;;7.30;69.06;98434.00;1820009;79;21003;-38
2022/04/23 06:45:05;;;;;;;20.53;13.07;;;;;;;7.30;68.75;98430.08;1817720;79;20114;-41
2022/04/23 06:47:31;;;;;;;20.55;13.48;;;;;;;7.41;68.94;98432.56;1817456;79;20999;-40
2022/04/23 06:50:00;;;;;;;19.98;14.25;;;;;;;7.54;68.80;98433.55;1817394;79;21029;-41
2022/04/23 06:52:27;;;;;;;25.72;14.00;;;;;;;7.61;68.75;98436.20;1817420;79;21425;-40
2022/04/23 06:54:54;;;;;;;21.35;13.15;;;;;;;7.73;68.76;98429.44;1817451;79;21025;-39
2022/04/23 06:57:25;;;;;;;;;;;;;;;7.84;68.63;98435.33;1820174;79;21029;-39
2022/04/23 06:59:52;;;;;;;20.97;13.00;;;;;;;7.88;68.14;98438.17;1817508;79;20106;-41
2022/04/23 07:02:19;;;;;;;20.62;13.13;;;;;;;8.01;67.92;98438.30;1817577;79;20948;-41
2022/04/23 07:04:45;;;;;;;21.37;13.25;;;;;;;8.04;67.70;98438.10;1817619;79;21015;-39
2022/04/23 07:07:12;;;;;;;17.80;12.85;;;;;;;8.05;67.62;98439.80;1817412;79;20978;-40
2022/04/23 07:09:38;;;;;;;18.62;12.73;;;;;;;8.19;67.72;98442.45;1817440;79;20978;-42
2022/04/23 07:12:06;;;;;;;17.35;12.18;;;;;;;8.27;67.62;98447.23;1817434;79;20978;-42
2022/04/23 07:14:32;;;;;;;18.62;12.90;;;;;;;8.31;67.37;98444.80;1817508;79;21033;-40
2022/04/23 07:16:59;;;;;;;21.60;13.20;;;;;;;8.34;67.16;98442.48;1817392;79;20978;-41
2022/04/23 07:19:26;;;;;;;18.63;13.27;;;;;;;8.39;67.36;98444.36;1817650;79;20987;-40
2022/04/23 07:21:51;;;;;;;17.73;12.40;;;;;;;8.50;67.33;98445.06;1817644;79;21502;-43
2022/04/23 07:24:17;;;;;;;20.23;11.95;;;;;;;8.62;67.27;98441.67;1817365;79;21018;-42
2022/04/23 07:26:43;;;;;;;17.17;11.05;;;;;;;8.83;66.74;98450.84;1817411;79;21014;-40
2022/04/23 07:29:10;;;;;;;12.13;9.38;;;;;;;9.01;66.33;98437.07;1817435;79;21034;-42
2022/04/23 07:31:37;;;;;;;;;;;;;;;9.12;65.86;98442.95;1820229;79;21025;-41
2022/04/23 07:39:34;;;;;;;12.37;8.38;;;;;;;9.34;65.49;98437.19;1817776;79;21010;-37
2022/04/23 07:42:00;;;;;;;13.23;8.70;;;;;;;9.37;65.16;98439.63;1817870;79;20955;-41
2022/04/23 07:44:26;;;;;;;14.63;8.75;;;;;;;9.37;64.91;98433.06;1809065;78;21015;-40
2022/04/23 07:46:52;;;;;;;14.73;9.05;;;;;;;9.48;64.98;98433.69;1807458;79;20979;-40
2022/04/23 07:49:18;;;;;;;11.93;9.00;;;;;;;9.61;64.96;98433.25;1807251;79;20978;-40
2022/04/23 07:51:47;;;;;;;14.30;9.23;;;;;;;9.63;64.61;98433.16;1807200;79;20995;-42
2022/04/23 07:54:14;;;;;;;10.63;7.58;;;;;;;9.63;64.30;98438.89;1807192;79;21531;-39
2022/04/23 07:56:40;;;;;;;9.05;7.30;;;;;;;9.70;64.32;98432.30;1807498;79;20963;-47
2022/04/23 07:59:06;;;;;;;9.60;7.80;;;;;;;9.71;64.23;98435.27;1807290;79;20987;-44
2022/04/23 08:01:31;;;;;;;10.72;8.50;;;;;;;9.77;64.15;98435.72;1807195;79;20956;-39
2022/04/23 08:03:58;;;;;;;10.93;8.08;;;;;;;9.83;63.91;98427.91;1807239;79;20976;-42
2022/04/23 08:06:24;;;;;;;9.78;7.72;;;;;;;9.76;63.75;98435.82;1807405;79;20995;-39
2022/04/23 08:08:50;;;;;;;9.80;8.23;;;;;;;9.79;63.62;98434.31;1807220;79;21471;-39
2022/04/23 08:11:16;;;;;;;13.80;8.18;;;;;;;9.82;63.76;98434.58;1807212;79;20995;-38
2022/04/23 08:13:41;;;;;;;13.38;8.55;;;;;;;10.06;64.08;98433.41;1798399;79;20991;-46
2022/04/23 08:16:07;;;;;;;16.80;8.05;;;;;;;10.23;63.19;98430.50;1795345;79;20995;-40
2022/04/23 08:18:33;;;;;;;13.45;6.97;;;;;;;10.26;62.47;98433.38;1807179;78;20991;-42
2022/04/23 08:20:58;;;;;;;7.50;6.55;;;;;;;10.48;62.63;98431.50;1807171;79;20948;-39
2022/04/23 08:23:24;;;;;;;9.23;6.97;;;;;;;10.56;62.51;98425.23;1807092;78;21131;-42
2022/04/23 08:25:52;;;;;;;7.40;6.45;;;;;;;10.66;61.85;98426.73;1807085;79;20983;-38
2022/04/23 08:31:02;;;;;;;8.40;6.58;;;;;;;10.82;61.00;98430.45;1807089;79;20952;-43
2022/04/23 08:33:57;;;;;;;8.10;5.50;;;;;;;10.97;60.95;98420.19;1807106;79;20979;-41
2022/04/23 08:35:55;;;;;;;;;;;;;;;10.97;59.99;98430.71;1805313;79;21417;-46
2022/04/23 08:38:21;;;;;;;6.72;5.75;;;;;;;10.90;59.87;98420.25;1807191;79;20110;-40
2022/04/23 08:40:47;;;;;;;8.78;7.10;;;;;;;10.96;59.63;98414.55;1807180;79;21023;-38
2022/04/23 08:43:13;;;;;;;7.40;6.15;;;;;;;11.20;60.51;98420.33;1809071;79;21618;-42
2022/04/23 08:45:39;;;;;;;11.93;6.40;;;;;;;11.44;59.99;98409.36;1794896;79;20951;-42
2022/04/23 08:48:17;;;;;;;7.85;6.17;;;;;;;11.58;59.40;98407.49;1817674;79;20986;-43
2022/04/23 08:50:41;;;;;;;11.40;7.53;;;;;;;11.66;58.14;98413.02;1814875;79;20991;-40
2022/04/23 08:53:14;;;;;;;8.00;7.20;;;;;;;11.68;57.57;98407.19;1817410;79;21157;-39
2022/04/23 08:55:45;;;;;;;9.10;6.83;;;;;;;11.98;58.30;98401.92;1817547;79;20979;-39
2022/04/23 08:58:09;;;;;;;13.93;7.75;;;;;;;12.17;57.77;98401.36;1817005;79;21018;-38
2022/04/23 09:00:35;;;;;;;12.45;7.03;;;;;;;12.27;57.38;98395.27;1817602;79;20989;-37
2022/04/23 09:03:01;;;;;;;12.07;6.60;;;;;;;12.31;56.80;98398.52;1817263;79;21011;-38
2022/04/23 09:05:28;;;;;;;10.48;6.45;;;;;;;12.36;55.97;98399.49;1817357;79;20959;-39
2022/04/23 09:07:56;;;;;;;;;;;;;;;12.58;55.49;98395.54;1820076;79;21002;-37
2022/04/23 09:10:43;;;;;;;11.08;6.92;;;;;;;12.69;53.83;98396.02;1817463;79;20102;-37
2022/04/23 09:13:10;;;;;;;9.90;7.15;;;;;;;12.71;54.34;98386.19;1817385;79;21571;-38
2022/04/23 09:24:11;;;;;;;6.58;5.80;;;;;;;14.37;52.35;98385.86;1817251;79;20963;-38
2022/04/23 09:26:40;;;;;;;10.98;6.72;;;;;;;15.26;49.64;98383.92;1816604;79;21357;-38
2022/04/23 09:29:15;;;;;;;10.72;7.70;;;;;;;15.44;48.01;98373.45;1817460;79;20987;-38
2022/04/23 09:31:42;;;;;;;6.83;5.62;;;;;;;15.54;46.79;98378.78;1817319;79;21468;-40
2022/04/23 09:34:16;;;;;;;6.85;5.95;;;;;;;15.70;46.67;98388.34;1817508;79;20959;-39
2022/04/23 09:37:00;;;;;;;7.33;5.67;;;;;;;15.73;46.79;98386.74;1817483;79;21551;-39
2022/04/23 09:39:38;;;;;;;11.28;5.50;;;;;;;16.20;46.44;98378.55;1816654;79;20991;-38
2022/04/23 09:42:18;;;;;;;8.03;6.20;;;;;;;16.39;44.12;98385.14;1815206;79;20955;-40
2022/04/23 09:44:47;;;;;;;8.05;5.20;;;;;;;16.75;44.28;98387.93;1809842;79;21043;-43
2022/04/23 09:47:31;;;;;;;6.50;5.65;;;;;;;17.14;43.42;98376.33;1805788;79;21003;-38
2022/04/23 09:49:58;;;;;;;6.78;5.20;;;;;;;17.58;45.38;98379.92;1806768;79;21030;-40
2022/04/23 09:52:29;;;;;;;4.72;4.25;;;;;;;17.98;40.99;98374.65;1806947;79;20979;-39
2022/04/23 09:54:56;;;;;;;8.43;4.90;;;;;;;18.64;40.22;98379.56;1806269;79;20989;-37
2022/04/23 09:57:24;;;;;;;5.78;4.58;;;;;;;18.37;38.69;98374.27;1805537;79;21063;-39
2022/04/23 09:59:54;;;;;;;8.23;4.75;;;;;;;18.57;39.75;98379.35;1806771;79;21549;-40
2022/04/23 10:02:23;;;;;;;5.62;4.50;;;;;;;17.90;40.25;98387.90;1806362;79;21565;-41
2022/04/23 10:04:54;;;;;;;6.40;5.20;;;;;;;17.74;40.87;98390.39;1804915;79;21021;-38
2022/04/23 10:07:24;;;;;;;5.80;5.22;;;;;;;17.12;40.92;98386.23;1805467;78;21025;-38
2022/04/23 10:09:50;;;;;;;7.72;5.55;;;;;;;16.93;41.12;98395.16;1805633;79;20996;-39
2022/04/23 10:12:19;;;;;;;6.80;5.60;;;;;;;16.39;41.96;98397.08;1806622;79;21103;-39
2022/04/23 10:14:53;;;;;;;6.03;5.42;;;;;;;15.42;43.86;98394.45;1807147;79;20996;-42
2022/04/23 10:17:22;;;;;;;8.05;5.72;;;;;;;15.47;43.91;98381.63;1777646;79;20946;-38
2022/04/23 10:19:49;;;;;;;12.43;5.40;;;;;;;14.89;45.21;98388.97;1807131;79;21001;-40
2022/04/23 10:22:35;;;;;;;8.95;6.35;;;;;;;14.67;46.25;98386.86;1807144;78;20984;-38
2022/04/23 10:25:24;;;;;;;6.83;6.17;;;;;;;15.18;45.41;98387.72;1803340;79;20972;-37
2022/04/23 10:27:52;;;;;;;9.03;6.90;;;;;;;14.77;46.51;98383.78;1807151;78;20973;-39
2022/04/23 10:30:18;;;;;;;11.05;6.20;;;;;;;14.60;47.05;98381.74;1778179;79;20954;-39
2022/04/23 10:32:44;;;;;;;7.03;6.22;;;;;;;14.91;47.56;98386.52;1806992;78;21083;-39
2022/04/23 10:35:24;;;;;;;14.07;6.30;;;;;;;15.92;45.93;98387.73;1805529;78;21477;-49
2022/04/23 10:37:50;;;;;;;9.33;6.17;;;;;;;17.31;45.97;98379.98;1800830;79;21023;-37
2022/04/23 10:40:19;;;;;;;7.55;6.60;;;;;;;18.03;39.81;98387.00;1791983;80;21002;-37
2022/04/23 10:43:08;;;;;;;7.78;5.08;;;;;;;18.34;41.99;98379.90;1790919;80;21022;-38
2022/04/23 10:45:40;;;;;;;8.45;5.92;;;;;;;17.50;40.27;98381.66;1830747;78;20980;-39
2022/04/23 10:48:24;;;;;;;8.00;6.28;;;;;;;17.42;41.96;98379.77;1831194;78;20984;-37
2022/04/23 10:51:18;;;;;;;7.75;5.60;;;;;;;16.77;42.30;98388.64;1831325;78;20996;-38
2022/04/23 10:53:48;;;;;;;6.55;5.78;;;;;;;18.19;41.96;98381.44;1830974;78;21040;-39
2022/04/23 10:56:17;;;;;;;13.03;5.97;;;;;;;18.80;39.53;98387.13;1831342;78;20991;-37
2022/04/23 10:58:43;;;;;;;6.17;5.60;;;;;;;19.48;39.07;98385.40;1831337;78;21003;-40
2022/04/23 11:01:30;;;;;;;5.70;5.10;;;;;;;20.24;36.29;98382.60;1831447;78;20968;-38
2022/04/23 11:04:08;;;;;;;;;;;;;;;21.02;36.52;98387.25;1834097;78;21097;-39
2022/04/23 11:12:33;;;;;;;6.22;5.65;;;;;;;22.75;33.47;98379.27;1801337;79;20998;-39
2022/04/23 11:15:01;;;;;;;5.53;4.70;;;;;;;21.73;32.57;98377.84;1794504;79;20987;-38
2022/04/23 11:17:38;;;;;;;6.12;5.62;;;;;;;21.22;32.84;98373.47;1817387;79;21664;-38
2022/04/23 11:20:05;;;;;;;;;;;;;;;21.33;33.02;98378.92;1821043;79;21007;-39
2022/04/23 11:22:31;;;;;;;7.72;4.65;;;;;;;20.46;33.02;98380.55;1817170;79;20114;-41
2022/04/23 11:24:57;;;;;;;8.73;4.78;;;;;;;20.51;32.43;98384.06;1817589;79;21020;-39
2022/04/23 11:27:29;;;;;;;4.37;3.98;;;;;;;20.14;32.89;98373.45;1817543;79;20989;-37
2022/04/23 11:29:56;;;;;;;5.25;4.75;;;;;;;19.20;34.27;98371.49;1817618;79;21106;-38
2022/04/23 11:32:30;;;;;;;9.35;5.30;;;;;;;18.84;34.70;98368.20;1817582;79;20984;-36
2022/04/23 11:35:07;;;;;;;8.65;5.08;;;;;;;18.14;35.45;98373.94;1817488;79;20941;-37
2022/04/23 11:37:35;;;;;;;;;;;;;;;17.38;36.71;98363.28;1820032;79;20961;-39
2022/04/23 11:40:23;;;;;;;10.03;5.08;;;;;;;17.48;38.48;98365.86;1817549;79;20191;-36
2022/04/23 11:42:47;;;;;;;7.50;4.72;;;;;;;17.92;37.17;98369.95;1815385;79;20985;-37
2022/04/23 11:45:16;;;;;;;6.50;5.58;;;;;;;17.67;37.72;98370.71;1817449;79;21462;-37
2022/04/23 11:47:42;;;;;;;7.00;4.87;;;;;;;16.91;38.69;98370.58;1810812;79;20927;-38
2022/04/23 11:50:17;;;;;;;6.30;5.70;;;;;;;16.73;38.96;98378.45;1776863;80;21001;-37
2022/04/23 11:52:48;;;;;;;6.03;5.35;;;;;;;16.28;39.12;98370.69;1776500;81;21014;-38
2022/04/23 11:55:23;;;;;;;8.23;5.45;;;;;;;15.84;40.02;98375.66;1774826;80;20998;-37
2022/04/23 11:57:56;;;;;;;6.60;5.62;;;;;;;15.70;39.66;98365.81;1776487;81;20982;-38
2022/04/23 12:00:24;;;;;;;7.83;6.50;;;;;;;15.55;40.33;98363.22;1776639;81;21462;-40
2022/04/23 12:02:51;;;;;;;7.90;5.97;;;;;;;15.25;41.17;98357.06;1776646;79;20977;-36
2022/04/23 12:05:28;;;;;;;7.55;5.90;;;;;;;16.16;42.27;98359.93;1776842;80;20959;-37
2022/04/23 12:07:55;;;;;;;10.50;6.90;;;;;;;18.20;40.03;98357.34;1776722;81;20982;-37
2022/04/23 12:10:24;;;;;;;;;;;;;;;19.67;37.17;98355.42;1779392;80;21533;-39
2022/04/23 12:12:51;;;;;;;7.50;5.50;;;;;;;20.44;33.49;98356.37;1774382;79;20108;-38
2022/04/23 12:15:19;;;;;;;6.10;4.60;;;;;;;20.71;33.93;98350.63;1776709;79;20985;-39
2022/04/23 12:17:51;;;;;;;5.83;4.42;;;;;;;21.60;32.89;98340.16;1776615;81;21467;-39
2022/04/23 12:20:23;;;;;;;5.72;4.90;;;;;;;21.93;30.83;98339.37;1776614;79;21026;-37
2022/04/23 12:23:06;;;;;;;6.80;4.15;;;;;;;20.95;30.89;98334.67;1776578;79;21453;-37
2022/04/23 12:25:34;;;;;;;4.75;4.30;;;;;;;21.38;32.08;98327.91;1776747;81;20967;-38
2022/04/23 12:42:12;;;;;;;4.85;4.45;;;;;;;18.06;35.18;98330.47;1776618;79;20970;-37
2022/04/23 12:44:46;;;;;;;6.92;4.45;;;;;;;17.69;36.27;98331.00;1775532;80;21054;-37
2022/04/23 12:47:19;;;;;;;10.10;5.00;;;;;;;17.46;35.97;98323.52;1775314;79;21062;-39
2022/04/23 12:49:55;;;;;;;7.50;4.67;;;;;;;17.20;36.67;98332.71;1774961;81;21134;-36
2022/04/23 12:52:44;;;;;;;5.43;4.73;;;;;;;17.97;35.57;98335.75;1776888;81;20955;-37
2022/04/23 12:55:26;;;;;;;5.10;4.33;;;;;;;18.92;34.67;98326.95;1776608;80;20990;-39
2022/04/23 12:58:04;;;;;;;7.25;5.10;;;;;;;20.01;32.72;98329.08;1775525;80;21010;-38
2022/04/23 13:00:36;;;;;;;5.55;4.60;;;;;;;19.52;32.90;98324.58;1776622;79;20990;-39
2022/04/23 13:03:28;;;;;;;7.00;5.08;;;;;;;19.34;33.41;98317.55;1776609;81;20986;-38
2022/04/23 13:05:46;;;;;;;6.78;4.78;;;;;;;18.93;34.03;98320.62;1775134;79;21112;-38
2022/04/23 13:11:24;;;;;;;7.33;4.70;;;;;;;17.69;34.63;98324.36;1776599;80;21027;-40
2022/04/23 13:13:27;;;;;;;8.48;4.78;;;;;;;17.14;35.51;98326.69;1773154;79;21058;-36
2022/04/23 13:15:53;;;;;;;4.78;4.37;;;;;;;16.77;36.61;98324.92;1776692;79;21436;-37
2022/04/23 13:18:20;;;;;;;7.17;4.50;;;;;;;16.39;38.15;98332.08;1791528;79;21460;-39
2022/04/23 13:20:46;;;;;;;6.78;5.20;;;;;;;15.88;39.23;98320.91;1814296;79;20971;-39
2022/04/23 13:23:12;;;;;;;6.45;5.20;;;;;;;15.66;39.46;98324.67;1821449;79;21035;-37
2022/04/23 13:25:39;;;;;;;9.63;4.85;;;;;;;15.63;39.39;98322.30;1821510;79;21049;-37
2022/04/23 13:28:05;;;;;;;7.20;4.90;;;;;;;15.28;40.75;98328.13;1811775;79;21414;-37
2022/04/23 13:30:31;;;;;;;8.95;5.08;;;;;;;15.07;41.42;98319.82;1810639;79;21007;-37
2022/04/23 13:32:56;;;;;;;8.40;4.40;;;;;;;15.10;41.08;98316.91;1810705;79;20971;-38
2022/04/23 13:35:22;;;;;;;5.62;4.60;;;;;;;15.51;41.34;98315.45;1810668;79;20991;-38
2022/04/23 13:37:48;;;;;;;7.35;4.50;;;;;;;15.68;41.15;98305.48;1810727;79;20948;-37
2022/04/23 13:40:14;;;;;;;5.92;4.45;;;;;;;16.04;39.78;98305.70;1810622;79;21007;-37
2022/04/23 13:42:42;;;;;;;9.38;4.33;;;;;;;16.03;39.56;98306.70;1810655;79;20992;-38
2022/04/23 13:45:09;;;;;;;4.58;3.92;;;;;;;15.76;39.99;98301.32;1810465;79;21546;-37
2022/04/23 13:47:35;;;;;;;6.00;4.78;;;;;;;15.77;39.81;98305.62;1810991;79;20987;-37
2022/04/23 13:50:01;;;;;;;4.97;4.05;;;;;;;15.39;40.65;98304.18;1810719;79;21027;-39
2022/04/23 13:52:27;;;;;;;7.00;4.67;;;;;;;15.15;41.08;98303.23;1810706;79;20944;-37
2022/04/23 13:54:52;;;;;;;9.43;5.15;;;;;;;14.98;41.50;98310.88;1810963;79;21480;-36
2022/04/23 13:57:18;;;;;;;6.83;5.45;;;;;;;14.67;42.19;98307.97;1810800;79;21011;-37
2022/04/23 13:59:44;;;;;;;10.58;5.55;;;;;;;14.71;42.61;98305.40;1810612;79;20956;-36
2022/04/23 14:10:22;;;;;;;6.80;5.55;;;;;;;14.58;43.36;98306.47;1810618;79;21852;-40
2022/04/23 14:12:48;;;;;;;8.10;5.60;;;;;;;14.50;44.10;98305.45;1810616;79;20972;-38
2022/04/23 14:15:14;;;;;;;8.65;5.75;;;;;;;14.42;43.79;98305.27;1810664;79;20994;-37
2022/04/23 14:17:39;;;;;;;7.42;5.55;;;;;;;14.28;45.74;98313.06;1797372;79;20951;-37
2022/04/23 14:20:07;;;;;;;11.25;6.37;;;;;;;14.20;44.63;98307.13;1774003;79;20985;-36
2022/04/23 14:22:33;;;;;;;;;;;;;;;14.09;45.58;98308.05;1776896;80;20987;-37
2022/04/23 14:24:59;;;;;;;7.30;6.37;;;;;;;14.06;47.73;98315.39;1774161;80;20445;-37
2022/04/23 14:27:29;;;;;;;9.78;7.08;;;;;;;13.84;47.44;98311.92;1774314;81;20978;-40
2022/04/23 14:29:56;;;;;;;12.68;7.30;;;;;;;13.87;47.11;98320.09;1774050;81;20974;-38
2022/04/23 14:32:22;;;;;;;13.28;7.22;;;;;;;13.87;47.07;98318.78;1774213;80;20975;-37
2022/04/23 14:34:52;;;;;;;8.78;6.28;;;;;;;13.74;47.42;98321.61;1774005;81;20981;-36
2022/04/23 14:37:15;;;;;;;;;;;;;;;13.59;46.72;98324.56;1775801;79;20966;-37
2022/04/23 14:39:41;;;;;;;9.50;5.72;;;;;;;13.46;47.71;98317.78;1793264;79;20422;-37
2022/04/23 14:42:09;;;;;;;9.60;6.45;;;;;;;13.44;46.57;98322.72;1817371;79;20983;-36
2022/04/23 14:44:35;;;;;;;12.10;6.70;;;;;;;13.42;46.97;98307.48;1811891;79;21108;-37
2022/04/23 14:47:03;;;;;;;6.83;5.65;;;;;;;13.39;47.42;98311.70;1810758;79;21465;-37
2022/04/23 14:49:30;;;;;;;7.58;5.55;;;;;;;13.43;46.49;98305.67;1810899;79;21474;-37
2022/04/23 14:54:41;;;;;;;8.70;5.08;;;;;;;13.30;46.30;98303.18;1799135;80;20956;-38
2022/04/23 14:57:08;;;;;;;7.22;5.30;;;;;;;13.31;46.60;98308.83;1799088;80;20975;-38
2022/04/23 14:59:34;;;;;;;9.47;5.53;;;;;;;13.40;46.44;98312.03;1799342;80;20984;-37
2022/04/23 15:02:00;;;;;;;12.50;5.72;;;;;;;13.47;46.62;98305.77;1799005;80;21454;-38
2022/04/23 15:04:26;;;;;;;12.40;6.10;;;;;;;13.58;46.47;98307.52;1799071;80;20976;-38
2022/04/23 15:06:53;;;;;;;7.03;5.60;;;;;;;13.70;46.10;98302.54;1799198;79;20956;-38
2022/04/23 15:09:19;;;;;;;;;;;;;;;13.76;45.56;98308.61;1801676;80;20999;-37